Terminal Aerodrome Forecast
Issued by NWS

Home | Current Version | Previous Version | Text Only | Print | Product List | Glossary On
Versions: 1 2 3 4 5 6 7 8 9 10 11 12 13 14 15 16 17 18 19 20 21 22 23 24 25 26 27 28 29 30
000
FTUS45 KPSR 201100 RRA
TAFSDL
TAF
KSDL 201144Z 2012/2112 VRB03KT P6SM SCT080
      TEMPO 2013/2017 BKN080
     FM202100 24006KT P6SM SCT080 SCT250
      TEMPO 2101/2105 BKN200
     FM210500 VRB03KT P6SM FEW080 SCT250=

USA.gov is the U.S. government's official web portal to all federal, state and local government web resources and services.